Time;durP1;ratioP1;P1;durP2;ratioP2;P2;SDS_P1;SDS_P2;PMS_P1;PMS_P2;Temp;Humidity;BMP_temperature;BMP_pressure;BME280_temperature;BME280_humidity;BME280_pressure;Samples;Min_cycle;Max_cycle;Signal;HPM_P1;HPM_P2
2022/11/02 00:01:41;;;;;;;2.75;0.73;;;20.70;94.90;;;;;;6152706;23;45236;-71
2022/11/02 00:04:08;;;;;;;2.47;0.70;;;20.70;94.80;;;;;;6152170;23;46152;-71
2022/11/02 00:06:36;;;;;;;1.50;0.73;;;20.70;94.80;;;;;;6152106;23;45357;-71
2022/11/02 00:09:03;;;;;;;0.30;0.30;;;20.70;94.90;;;;;;6152351;23;45436;-72
2022/11/02 00:11:30;;;;;;;1.45;0.60;;;20.70;94.90;;;;;;6151557;23;45354;-72
2022/11/02 00:13:57;;;;;;;1.92;0.65;;;20.70;95.00;;;;;;6152455;23;45413;-71
2022/11/02 00:16:25;;;;;;;1.33;0.38;;;20.70;95.00;;;;;;6151868;23;45354;-71
2022/11/02 00:18:57;;;;;;;2.13;0.75;;;20.70;95.10;;;;;;6151339;23;45265;-71
2022/11/02 00:21:26;;;;;;;1.25;0.40;;;20.70;95.00;;;;;;6152070;23;45320;-71
2022/11/02 00:23:56;;;;;;;1.77;0.60;;;20.70;95.00;;;;;;6151283;23;48046;-72
2022/11/02 00:26:22;;;;;;;2.42;0.70;;;20.70;94.90;;;;;;6151762;23;45258;-72
2022/11/02 00:28:50;;;;;;;2.78;0.80;;;20.70;94.80;;;;;;6149490;23;45415;-71
2022/11/02 00:31:17;;;;;;;2.72;0.60;;;20.70;94.70;;;;;;6152424;23;45376;-71
2022/11/02 00:33:44;;;;;;;0.73;0.40;;;20.70;94.80;;;;;;6153044;23;47363;-72
2022/11/02 00:36:10;;;;;;;1.05;0.55;;;20.70;94.80;;;;;;6152452;23;45325;-71
2022/11/02 00:38:37;;;;;;;0.75;0.50;;;20.70;94.70;;;;;;6153589;23;45382;-71
2022/11/02 00:41:05;;;;;;;0.90;0.40;;;20.70;94.80;;;;;;6151630;23;45502;-71
2022/11/02 00:43:33;;;;;;;1.08;0.40;;;20.70;94.70;;;;;;6152852;23;46129;-71
2022/11/02 00:46:00;;;;;;;2.25;0.50;;;20.70;94.60;;;;;;6152005;23;45574;-71
2022/11/02 00:48:27;;;;;;;1.77;0.35;;;20.70;94.70;;;;;;6153842;23;45344;-72
2022/11/02 00:50:53;;;;;;;1.85;0.57;;;20.70;94.60;;;;;;6152602;23;45460;-71
2022/11/02 00:53:21;;;;;;;2.63;0.52;;;20.70;94.50;;;;;;6151596;23;47508;-71
2022/11/02 00:55:48;;;;;;;1.88;0.60;;;20.70;94.50;;;;;;6153373;23;45397;-72
2022/11/02 00:58:16;;;;;;;1.25;0.55;;;20.70;94.70;;;;;;6154965;23;45318;-71
2022/11/02 01:00:43;;;;;;;0.88;0.40;;;20.70;94.80;;;;;;6152830;23;45462;-71
2022/11/02 01:03:10;;;;;;;2.60;0.50;;;20.70;94.80;;;;;;6153146;23;45473;-71
2022/11/02 01:05:37;;;;;;;1.15;0.60;;;20.70;94.90;;;;;;6153545;23;45330;-71
2022/11/02 01:08:04;;;;;;;2.25;0.73;;;20.70;95.00;;;;;;6153278;23;45192;-71
2022/11/02 01:10:31;;;;;;;1.05;0.47;;;20.70;94.90;;;;;;6152403;23;45291;-72
2022/11/02 01:12:58;;;;;;;0.55;0.45;;;20.70;94.90;;;;;;6153484;23;45232;-71
2022/11/02 01:15:26;;;;;;;2.63;0.60;;;20.70;94.90;;;;;;6153114;23;46040;-72
2022/11/02 01:17:52;;;;;;;0.82;0.40;;;20.70;95.00;;;;;;6151831;23;45171;-72
2022/11/02 01:20:20;;;;;;;2.22;0.60;;;20.70;95.10;;;;;;6152232;23;45509;-71
2022/11/02 01:22:46;;;;;;;1.48;0.28;;;20.70;95.00;;;;;;6153196;23;46535;-71
2022/11/02 01:25:13;;;;;;;1.00;0.35;;;20.70;94.90;;;;;;6153116;23;45297;-72
2022/11/02 01:27:40;;;;;;;1.98;0.70;;;20.70;94.70;;;;;;6152430;23;45284;-72
2022/11/02 01:30:07;;;;;;;1.73;0.60;;;20.70;94.70;;;;;;6151048;23;45206;-71
2022/11/02 01:32:36;;;;;;;2.85;0.70;;;20.70;94.50;;;;;;6152194;23;45383;-71
2022/11/02 01:35:02;;;;;;;1.60;0.50;;;20.70;94.50;;;;;;6153210;23;45410;-72
2022/11/02 01:37:29;;;;;;;1.92;0.60;;;20.70;94.60;;;;;;6153296;23;45303;-71
2022/11/02 01:39:56;;;;;;;1.60;0.50;;;20.70;94.50;;;;;;6151427;23;45515;-71
2022/11/02 01:42:24;;;;;;;1.83;0.57;;;20.70;94.60;;;;;;6152259;23;48137;-71
2022/11/02 01:44:51;;;;;;;2.00;0.65;;;20.70;94.30;;;;;;6151290;23;45347;-71
2022/11/02 01:47:22;;;;;;;1.85;0.68;;;20.70;94.70;;;;;;6151152;23;45437;-71
2022/11/02 01:49:56;;;;;;;0.95;0.40;;;20.70;94.30;;;;;;6151059;23;45531;-71
2022/11/02 01:52:26;;;;;;;1.60;0.57;;;20.70;94.30;;;;;;6152077;23;45272;-71
2022/11/02 01:54:56;;;;;;;0.98;0.43;;;20.70;94.30;;;;;;6152288;23;45233;-72
2022/11/02 01:57:23;;;;;;;1.20;0.55;;;20.70;94.50;;;;;;6153149;23;45363;-72
2022/11/02 01:59:55;;;;;;;2.42;0.50;;;20.70;94.50;;;;;;6152174;23;45237;-71
2022/11/02 02:02:24;;;;;;;1.33;0.50;;;20.70;94.40;;;;;;6152986;23;46139;-71
2022/11/02 02:04:58;;;;;;;2.03;0.50;;;20.70;94.70;;;;;;6153158;23;45233;-71
2022/11/02 02:07:27;;;;;;;2.75;0.60;;;20.70;94.60;;;;;;6152746;23;45366;-71
2022/11/02 02:09:55;;;;;;;3.85;0.60;;;20.70;94.90;;;;;;6152620;23;45341;-72
2022/11/02 02:12:23;;;;;;;1.77;0.68;;;20.70;94.80;;;;;;6152606;23;48080;-71
2022/11/02 02:14:50;;;;;;;1.42;0.57;;;20.70;94.90;;;;;;6153422;23;45315;-72
2022/11/02 02:17:36;;;;;;;2.45;0.63;;;20.70;94.70;;;;;;6152266;23;45217;-71
2022/11/02 02:20:10;;;;;;;2.03;0.60;;;20.70;94.90;;;;;;6152263;23;45214;-71
2022/11/02 02:23:02;;;;;;;1.85;0.50;;;20.70;94.70;;;;;;6153073;23;46618;-72
2022/11/02 02:26:00;;;;;;;2.35;0.60;;;20.70;94.60;;;;;;6151892;23;45270;-71
2022/11/02 02:28:36;;;;;;;1.25;0.50;;;20.60;94.80;;;;;;6104486;23;45588;-73
2022/11/02 02:31:10;;;;;;;0.95;0.50;;;20.70;94.30;;;;;;6152111;23;45383;-72
2022/11/02 02:33:43;;;;;;;1.90;0.57;;;20.70;94.30;;;;;;6153054;23;46297;-71
2022/11/02 02:36:17;;;;;;;2.80;0.65;;;20.70;94.30;;;;;;6151621;23;46075;-71
2022/11/02 02:38:47;;;;;;;1.45;0.50;;;20.70;94.30;;;;;;6154973;23;45440;-71
2022/11/02 02:41:20;;;;;;;1.15;0.40;;;20.70;94.20;;;;;;6151750;23;45346;-72
2022/11/02 02:43:52;;;;;;;1.15;0.40;;;20.70;94.30;;;;;;6152508;23;47946;-71
2022/11/02 02:46:21;;;;;;;2.40;0.60;;;20.70;94.30;;;;;;6152467;23;45214;-72
2022/11/02 02:48:51;;;;;;;2.35;0.68;;;20.70;94.30;;;;;;6152977;23;45289;-72
2022/11/02 02:51:22;;;;;;;3.17;0.68;;;20.70;94.30;;;;;;6152257;23;45448;-72
2022/11/02 02:53:52;;;;;;;2.05;0.68;;;20.70;94.30;;;;;;6151586;23;46362;-71
2022/11/02 02:56:23;;;;;;;1.67;0.65;;;20.70;94.30;;;;;;6152605;23;45274;-72
2022/11/02 02:58:58;;;;;;;2.03;0.60;;;20.70;94.30;;;;;;6152562;23;45254;-71
2022/11/02 03:01:26;;;;;;;1.42;0.60;;;20.70;94.30;;;;;;6151515;23;45313;-72
2022/11/02 03:03:53;;;;;;;1.27;0.50;;;20.70;94.30;;;;;;6152105;23;47277;-71
2022/11/02 03:06:23;;;;;;;1.38;0.60;;;20.70;94.40;;;;;;6151889;23;45369;-72
2022/11/02 03:09:01;;;;;;;2.65;0.60;;;20.70;94.30;;;;;;6152924;23;45278;-72
2022/11/02 03:11:28;;;;;;;2.42;0.57;;;20.70;94.70;;;;;;6151538;23;45191;-72
2022/11/02 03:14:13;;;;;;;0.98;0.40;;;20.60;94.30;;;;;;6152697;23;45672;-71
2022/11/02 03:16:58;;;;;;;1.63;0.70;;;20.60;94.30;;;;;;6152161;23;45411;-72
2022/11/02 03:19:32;;;;;;;1.58;0.60;;;20.60;94.50;;;;;;6149983;23;45418;-71
2022/11/02 03:22:04;;;;;;;1.33;0.50;;;20.60;94.30;;;;;;6152570;23;45479;-72
2022/11/02 03:24:35;;;;;;;0.63;0.40;;;20.60;94.30;;;;;;6151916;23;46279;-71
2022/11/02 03:27:11;;;;;;;2.75;0.60;;;20.70;94.30;;;;;;6152964;23;45474;-71
2022/11/02 03:29:47;;;;;;;1.85;0.82;;;20.70;94.30;;;;;;6150875;23;45316;-71
2022/11/02 03:32:22;;;;;;;1.35;0.50;;;20.70;94.30;;;;;;6151325;23;45296;-71
2022/11/02 03:34:54;;;;;;;2.47;0.38;;;20.70;94.20;;;;;;6152148;23;47030;-71
2022/11/02 03:37:25;;;;;;;2.50;0.60;;;20.70;94.10;;;;;;6152145;23;45313;-72
2022/11/02 03:39:56;;;;;;;4.80;0.80;;;20.70;94.20;;;;;;6151640;23;45326;-71
2022/11/02 03:42:27;;;;;;;0.60;0.40;;;20.70;94.20;;;;;;6152697;23;45435;-71
2022/11/02 03:44:58;;;;;;;1.00;0.47;;;20.70;94.30;;;;;;6151949;23;46405;-71
2022/11/02 03:47:29;;;;;;;1.83;0.75;;;20.70;94.00;;;;;;6149962;23;45454;-72
2022/11/02 03:49:57;;;;;;;1.40;0.40;;;20.70;94.00;;;;;;6150984;23;45494;-71
2022/11/02 03:52:28;;;;;;;1.65;0.50;;;20.70;94.00;;;;;;6150470;23;45241;-71
2022/11/02 03:55:03;;;;;;;3.03;0.63;;;20.60;93.80;;;;;;6150179;23;45263;-71
2022/11/02 03:57:36;;;;;;;1.30;0.55;;;20.70;94.20;;;;;;6150383;23;45699;-72
2022/11/02 04:00:11;;;;;;;2.08;0.65;;;20.70;94.20;;;;;;6152199;23;45254;-71
2022/11/02 04:02:40;;;;;;;1.90;0.60;;;20.60;94.30;;;;;;6151676;23;45307;-72
2022/11/02 04:05:08;;;;;;;1.35;0.50;;;20.60;94.30;;;;;;6151869;23;48251;-71
2022/11/02 04:10:18;;;;;;;1.48;0.60;;;20.60;94.30;;;;;;6151025;23;45464;-71
2022/11/02 04:15:31;;;;;;;0.70;0.40;;;20.60;94.30;;;;;;6153001;23;45679;-71
2022/11/02 04:20:42;;;;;;;2.03;0.60;;;20.60;94.30;;;;;;6153394;23;45290;-72
2022/11/02 04:25:54;;;;;;;1.65;0.40;;;20.60;94.10;;;;;;6153952;23;45837;-72
2022/11/02 04:28:21;;;;;;;2.28;0.40;;;20.60;94.40;;;;;;6152659;23;45273;-72
2022/11/02 04:30:49;;;;;;;1.58;0.50;;;20.60;94.00;;;;;;6151728;23;45250;-71
2022/11/02 04:33:34;;;;;;;1.10;0.50;;;20.60;94.10;;;;;;6152840;23;45206;-71
2022/11/02 04:36:02;;;;;;;1.40;0.50;;;20.70;94.00;;;;;;6153014;23;46301;-71
2022/11/02 04:38:40;;;;;;;2.60;0.45;;;20.70;94.00;;;;;;6152834;23;45370;-71
2022/11/02 04:43:52;;;;;;;0.90;0.40;;;20.70;94.00;;;;;;6153806;23;45199;-71
2022/11/02 04:46:22;;;;;;;1.55;0.50;;;20.70;94.00;;;;;;6152129;23;46570;-71
2022/11/02 04:48:49;;;;;;;1.17;0.43;;;20.70;93.80;;;;;;6153802;23;45309;-72
2022/11/02 04:51:16;;;;;;;3.17;0.60;;;20.70;93.80;;;;;;6151945;23;45381;-71
2022/11/02 04:53:43;;;;;;;1.95;0.50;;;20.60;93.80;;;;;;6154744;23;45357;-72
2022/11/02 04:56:10;;;;;;;1.60;0.35;;;20.70;94.10;;;;;;6152303;23;45406;-71
2022/11/02 04:58:37;;;;;;;2.00;0.50;;;20.60;94.20;;;;;;6152990;23;45329;-72
2022/11/02 05:01:06;;;;;;;1.65;0.50;;;20.60;94.30;;;;;;6150550;23;45238;-71
2022/11/02 05:03:34;;;;;;;1.90;0.50;;;20.60;94.30;;;;;;6151853;23;45319;-72
2022/11/02 05:06:01;;;;;;;0.93;0.47;;;20.60;94.30;;;;;;6152646;23;46995;-72
2022/11/02 05:08:28;;;;;;;1.92;0.68;;;20.60;94.10;;;;;;6150689;23;45464;-72
2022/11/02 05:10:55;;;;;;;1.38;0.68;;;20.60;94.30;;;;;;6152912;23;45221;-72
2022/11/02 05:13:22;;;;;;;2.15;0.80;;;20.60;94.30;;;;;;6153278;23;45453;-71
2022/11/02 05:15:50;;;;;;;0.85;0.40;;;20.60;94.20;;;;;;6151835;23;46398;-73
2022/11/02 05:18:17;;;;;;;1.77;0.45;;;20.60;94.30;;;;;;6148630;23;45359;-71
2022/11/02 05:20:50;;;;;;;1.38;0.50;;;20.60;94.00;;;;;;6151973;23;45227;-71
2022/11/02 05:23:17;;;;;;;1.27;0.40;;;20.60;94.10;;;;;;6153098;23;45454;-73
2022/11/02 05:25:52;;;;;;;2.25;0.50;;;20.60;94.00;;;;;;6152623;23;47953;-71
2022/11/02 05:28:19;;;;;;;3.63;0.60;;;20.60;93.80;;;;;;6152675;23;45210;-72
2022/11/02 05:30:45;;;;;;;1.52;0.38;;;20.60;93.90;;;;;;6152569;23;45323;-71
2022/11/02 05:33:12;;;;;;;1.00;0.30;;;20.60;93.70;;;;;;6152633;23;45296;-72
2022/11/02 05:35:39;;;;;;;2.17;0.65;;;20.60;93.70;;;;;;6152520;23;46427;-71
2022/11/02 05:38:07;;;;;;;1.05;0.50;;;20.60;93.70;;;;;;6152361;23;45962;-71
2022/11/02 05:40:36;;;;;;;1.83;0.60;;;20.60;93.70;;;;;;6151984;23;45169;-71
2022/11/02 05:43:04;;;;;;;1.20;0.50;;;20.60;93.70;;;;;;6152486;23;45439;-72
2022/11/02 05:45:31;;;;;;;2.78;0.60;;;20.60;93.70;;;;;;6152046;23;46356;-71
2022/11/02 05:48:01;;;;;;;2.85;0.70;;;20.60;93.60;;;;;;6153067;23;45225;-71
2022/11/02 05:50:28;;;;;;;1.23;0.50;;;20.60;93.60;;;;;;6151613;23;45342;-71
2022/11/02 05:52:55;;;;;;;2.65;0.88;;;20.60;93.60;;;;;;6152706;23;45261;-71
2022/11/02 05:55:24;;;;;;;1.70;0.70;;;20.60;93.60;;;;;;6151671;23;45572;-72
2022/11/02 05:57:52;;;;;;;1.52;0.50;;;20.60;93.60;;;;;;6153021;23;45954;-72
2022/11/02 06:00:19;;;;;;;3.15;0.65;;;20.60;93.60;;;;;;6152685;23;45455;-71
2022/11/02 06:02:46;;;;;;;1.85;0.47;;;20.60;93.70;;;;;;6154564;23;45409;-71
2022/11/02 06:05:13;;;;;;;1.75;0.60;;;20.60;93.90;;;;;;6153042;23;46234;-72
2022/11/02 06:07:40;;;;;;;2.13;0.57;;;20.60;93.90;;;;;;6152238;23;45282;-71
2022/11/02 06:10:08;;;;;;;0.43;0.30;;;20.60;93.80;;;;;;6151637;23;45239;-71
2022/11/02 06:12:36;;;;;;;1.85;0.60;;;20.60;93.90;;;;;;6152803;23;45243;-71
2022/11/02 06:15:03;;;;;;;0.75;0.40;;;20.60;93.90;;;;;;6152671;23;47821;-72
2022/11/02 06:17:36;;;;;;;1.63;0.40;;;20.60;93.80;;;;;;6150749;23;45353;-71
2022/11/02 06:20:03;;;;;;;1.70;0.40;;;20.60;93.70;;;;;;6150235;23;45278;-71
2022/11/02 06:22:30;;;;;;;2.30;0.50;;;20.60;93.50;;;;;;6152760;23;45469;-71
2022/11/02 06:24:56;;;;;;;1.50;0.45;;;20.60;93.60;;;;;;6150288;23;45407;-71
2022/11/02 06:27:23;;;;;;;2.00;0.75;;;20.60;93.70;;;;;;6151827;23;45350;-71
2022/11/02 06:29:51;;;;;;;1.55;0.40;;;20.60;93.80;;;;;;6151391;23;45305;-71
2022/11/02 06:32:18;;;;;;;2.15;0.38;;;20.60;93.80;;;;;;6151070;23;45526;-71
2022/11/02 06:34:45;;;;;;;2.00;0.50;;;20.60;93.80;;;;;;6151721;23;46617;-70
2022/11/02 06:37:11;;;;;;;2.17;0.50;;;20.50;93.70;;;;;;6151986;23;45505;-71
2022/11/02 06:39:38;;;;;;;2.25;0.70;;;20.50;93.70;;;;;;6152087;23;45262;-71
2022/11/02 06:42:05;;;;;;;0.55;0.30;;;20.50;93.80;;;;;;6151368;23;45532;-70
2022/11/02 06:44:32;;;;;;;3.10;0.73;;;20.50;93.80;;;;;;6150962;23;47346;-71
2022/11/02 06:47:00;;;;;;;1.52;0.60;;;20.50;93.80;;;;;;6152931;23;45286;-71
2022/11/02 06:49:27;;;;;;;1.98;0.45;;;20.50;93.60;;;;;;6152118;23;45308;-70
2022/11/02 06:51:53;;;;;;;1.45;0.50;;;20.50;93.60;;;;;;6148304;23;45330;-70
2022/11/02 06:54:20;;;;;;;0.65;0.40;;;20.50;93.80;;;;;;6150398;23;46578;-70
2022/11/02 06:56:47;;;;;;;3.25;0.50;;;20.50;93.70;;;;;;6151289;23;45266;-70
2022/11/02 06:59:14;;;;;;;0.80;0.43;;;20.50;93.80;;;;;;6151860;23;45242;-71
2022/11/02 07:01:40;;;;;;;0.88;0.45;;;20.50;93.80;;;;;;6151425;23;45483;-71
2022/11/02 07:04:09;;;;;;;3.75;0.60;;;20.50;93.60;;;;;;6152327;23;46519;-70
2022/11/02 07:06:36;;;;;;;1.35;0.50;;;20.50;93.70;;;;;;6152101;23;45305;-71
2022/11/02 07:09:03;;;;;;;1.08;0.40;;;20.50;93.80;;;;;;6152048;23;45286;-71
2022/11/02 07:11:30;;;;;;;0.95;0.30;;;20.50;93.80;;;;;;6152307;23;45343;-72
2022/11/02 07:13:56;;;;;;;2.22;0.52;;;20.50;93.70;;;;;;6152738;23;47199;-71
2022/11/02 07:16:24;;;;;;;1.77;0.43;;;20.50;93.80;;;;;;6151992;23;45268;-71
2022/11/02 07:18:50;;;;;;;0.93;0.30;;;20.50;93.80;;;;;;6148680;23;45412;-72
2022/11/02 07:21:18;;;;;;;2.42;0.40;;;20.50;93.70;;;;;;6148499;23;45249;-71
2022/11/02 07:23:45;;;;;;;3.25;0.90;;;20.50;93.60;;;;;;6151764;23;48511;-69
2022/11/02 07:26:12;;;;;;;0.52;0.38;;;20.50;93.50;;;;;;6152640;23;45772;-71
2022/11/02 07:28:39;;;;;;;1.60;0.60;;;20.50;93.30;;;;;;6151701;23;45261;-71
2022/11/02 07:31:06;;;;;;;1.95;0.50;;;20.50;93.40;;;;;;6150831;23;45577;-71
2022/11/02 07:33:33;;;;;;;3.00;0.63;;;20.50;93.40;;;;;;6151350;23;47372;-71
2022/11/02 07:36:03;;;;;;;3.40;0.43;;;20.50;93.30;;;;;;6152013;23;45452;-71
2022/11/02 07:38:31;;;;;;;1.90;0.63;;;20.50;93.70;;;;;;6151416;23;45529;-71
2022/11/02 07:40:58;;;;;;;1.17;0.70;;;20.50;93.50;;;;;;6150938;23;45374;-71
2022/11/02 07:43:24;;;;;;;0.93;0.50;;;20.50;93.60;;;;;;6154302;23;46585;-71
2022/11/02 07:45:51;;;;;;;1.83;0.70;;;20.50;93.10;;;;;;6151520;23;45310;-72
2022/11/02 07:48:18;;;;;;;1.52;0.43;;;20.50;93.60;;;;;;6152629;23;45298;-71
2022/11/02 07:50:45;;;;;;;2.15;0.52;;;20.50;93.10;;;;;;6150942;23;45249;-72
2022/11/02 07:53:12;;;;;;;1.33;0.30;;;20.50;93.10;;;;;;6151215;23;46498;-70
2022/11/02 07:55:40;;;;;;;2.15;0.60;;;20.50;93.20;;;;;;6151481;23;45261;-71
2022/11/02 07:58:12;;;;;;;2.17;0.75;;;20.50;93.30;;;;;;6152068;23;45481;-71
2022/11/02 08:00:39;;;;;;;4.38;0.85;;;20.50;93.30;;;;;;6149692;23;45274;-71
2022/11/02 08:03:08;;;;;;;3.63;0.57;;;20.50;93.30;;;;;;6152276;23;47626;-71
2022/11/02 08:05:37;;;;;;;3.80;0.80;;;20.50;93.40;;;;;;6150100;23;45430;-71
2022/11/02 08:08:05;;;;;;;1.35;0.60;;;20.50;93.30;;;;;;6150525;23;45358;-71
2022/11/02 08:10:34;;;;;;;1.08;0.60;;;20.50;93.40;;;;;;6151495;23;45259;-71
2022/11/02 08:13:02;;;;;;;1.45;0.40;;;20.50;93.20;;;;;;6150678;23;47386;-71
2022/11/02 08:15:29;;;;;;;1.40;0.40;;;20.50;93.30;;;;;;6152116;23;45222;-71
2022/11/02 08:18:03;;;;;;;1.58;0.47;;;20.50;93.10;;;;;;6148317;23;45246;-71
2022/11/02 08:20:30;;;;;;;3.17;0.47;;;20.50;93.00;;;;;;6151607;23;45574;-71
2022/11/02 08:22:57;;;;;;;1.77;0.63;;;20.50;92.80;;;;;;6152060;23;46396;-70
2022/11/02 08:25:25;;;;;;;3.03;0.77;;;20.50;92.80;;;;;;6151346;23;45370;-71
2022/11/02 08:27:51;;;;;;;2.90;0.70;;;20.50;92.60;;;;;;6151769;23;45300;-71
2022/11/02 08:30:19;;;;;;;2.60;0.70;;;20.50;92.80;;;;;;6150457;23;45193;-71
2022/11/02 08:32:46;;;;;;;1.95;0.50;;;20.50;92.70;;;;;;6153620;23;47731;-70
2022/11/02 08:35:13;;;;;;;2.67;0.82;;;20.50;92.70;;;;;;6154870;23;45626;-71
2022/11/02 08:37:40;;;;;;;2.03;0.55;;;20.50;92.80;;;;;;6154256;23;45214;-71
2022/11/02 08:40:08;;;;;;;2.63;0.70;;;20.50;92.80;;;;;;6150638;23;45325;-71
2022/11/02 08:42:37;;;;;;;1.85;0.55;;;20.50;92.70;;;;;;6151218;23;47504;-71
2022/11/02 08:45:05;;;;;;;2.92;0.85;;;20.50;92.80;;;;;;6151454;23;45447;-71
2022/11/02 08:47:33;;;;;;;2.58;0.60;;;20.50;92.80;;;;;;6151760;23;45507;-72
2022/11/02 08:50:00;;;;;;;2.08;0.60;;;20.50;92.60;;;;;;6148774;23;45298;-71
2022/11/02 08:52:27;;;;;;;1.92;0.70;;;20.50;92.80;;;;;;6151874;23;47218;-71
2022/11/02 08:54:54;;;;;;;2.08;0.77;;;20.50;92.80;;;;;;6152631;23;45249;-71
2022/11/02 08:57:20;;;;;;;2.42;0.70;;;20.50;92.80;;;;;;6153031;23;45264;-71
2022/11/02 08:59:47;;;;;;;2.13;0.60;;;20.50;92.70;;;;;;6153851;23;45492;-70
2022/11/02 09:02:14;;;;;;;2.13;0.63;;;20.60;92.60;;;;;;6151183;23;48194;-71
2022/11/02 09:04:42;;;;;;;2.97;0.52;;;20.60;92.80;;;;;;6152770;23;45377;-71
2022/11/02 09:07:09;;;;;;;1.40;0.60;;;20.60;92.80;;;;;;6152214;23;45253;-71
2022/11/02 09:09:36;;;;;;;2.05;0.70;;;20.60;92.80;;;;;;6152157;23;45402;-70
2022/11/02 09:12:03;;;;;;;4.35;0.80;;;20.60;92.50;;;;;;6153810;23;48017;-71
2022/11/02 09:14:29;;;;;;;3.55;0.50;;;20.60;92.40;;;;;;6154999;23;45246;-70
2022/11/02 09:16:56;;;;;;;2.25;0.70;;;20.60;92.40;;;;;;6154683;23;45249;-71
2022/11/02 09:19:23;;;;;;;0.63;0.40;;;20.60;92.30;;;;;;6152342;23;45272;-71
2022/11/02 09:21:51;;;;;;;1.50;0.63;;;20.60;92.20;;;;;;6155048;23;45327;-71
2022/11/02 09:24:18;;;;;;;3.72;0.95;;;20.60;92.20;;;;;;6155086;23;46330;-71
2022/11/02 09:26:47;;;;;;;1.98;0.60;;;20.60;92.10;;;;;;6155457;23;45217;-71
2022/11/02 09:29:13;;;;;;;1.42;0.52;;;20.60;92.10;;;;;;6154536;23;45442;-71
2022/11/02 09:31:40;;;;;;;2.50;0.70;;;20.60;92.10;;;;;;6149164;23;45380;-71
2022/11/02 09:34:07;;;;;;;2.38;0.52;;;20.60;92.10;;;;;;6152397;23;45309;-72
2022/11/02 09:36:34;;;;;;;2.00;0.77;;;20.60;92.10;;;;;;6152966;23;45221;-71
2022/11/02 09:39:02;;;;;;;1.35;0.60;;;20.60;92.10;;;;;;6150105;23;45407;-71
2022/11/02 09:41:36;;;;;;;3.50;0.70;;;20.60;92.30;;;;;;6151487;23;47506;-71
2022/11/02 09:44:07;;;;;;;2.08;0.70;;;20.60;92.40;;;;;;6152506;23;45466;-70
2022/11/02 09:46:38;;;;;;;2.63;0.68;;;20.60;92.50;;;;;;6153058;23;45389;-71
2022/11/02 09:49:11;;;;;;;2.97;0.60;;;20.60;92.60;;;;;;6153343;23;45202;-71
2022/11/02 09:51:42;;;;;;;3.80;0.63;;;20.60;92.60;;;;;;6150478;23;47063;-71
2022/11/02 09:54:16;;;;;;;1.40;0.50;;;20.60;92.60;;;;;;6152824;23;46071;-71
2022/11/02 09:56:43;;;;;;;0.68;0.30;;;20.60;92.60;;;;;;6152068;23;45480;-71
2022/11/02 09:59:14;;;;;;;2.13;0.60;;;20.60;92.50;;;;;;6152739;23;45513;-71
2022/11/02 10:02:01;;;;;;;2.15;0.50;;;20.60;92.50;;;;;;6149139;23;47848;-72
2022/11/02 10:05:03;;;;;;;1.90;0.50;;;20.60;93.00;;;;;;6152389;23;45410;-70
2022/11/02 10:07:54;;;;;;;1.90;0.70;;;20.70;92.30;;;;;;6151038;23;45438;-71
2022/11/02 10:10:32;;;;;;;2.05;0.70;;;20.70;92.50;;;;;;6151664;23;45289;-71
2022/11/02 10:13:04;;;;;;;2.03;0.63;;;20.70;92.10;;;;;;6152757;23;45675;-71
2022/11/02 10:15:37;;;;;;;0.93;0.32;;;20.70;91.90;;;;;;6152774;23;45320;-70
2022/11/02 10:18:06;;;;;;;1.95;0.75;;;20.70;91.70;;;;;;6153460;23;45242;-72
2022/11/02 10:20:38;;;;;;;1.35;0.40;;;20.70;91.70;;;;;;6152320;23;45160;-71
2022/11/02 10:23:08;;;;;;;2.83;0.57;;;20.70;91.60;;;;;;6151978;23;46343;-70
2022/11/02 10:25:37;;;;;;;1.38;0.68;;;20.70;91.50;;;;;;6152933;23;45869;-70
2022/11/02 10:28:10;;;;;;;6.15;1.20;;;20.70;91.40;;;;;;6152470;23;45284;-72
2022/11/02 10:30:38;;;;;;;2.05;0.85;;;20.70;91.20;;;;;;6154951;23;45368;-72
2022/11/02 10:33:12;;;;;;;2.47;0.75;;;20.70;91.70;;;;;;6151765;23;47322;-73
2022/11/02 10:35:46;;;;;;;2.53;0.70;;;20.70;91.60;;;;;;6153256;23;45256;-72
2022/11/02 10:38:27;;;;;;;2.72;0.60;;;20.70;91.90;;;;;;6154337;23;45234;-70
2022/11/02 10:41:24;;;;;;;3.03;0.93;;;20.70;91.90;;;;;;6151666;23;45265;-73
2022/11/02 10:44:09;;;;;;;3.00;0.70;;;20.70;91.90;;;;;;6149440;23;47174;-73
2022/11/02 10:46:56;;;;;;;5.45;0.80;;;20.70;92.00;;;;;;6151918;23;45359;-72
2022/11/02 10:49:42;;;;;;;4.60;0.60;;;20.70;92.10;;;;;;6151852;23;45385;-72
2022/11/02 10:52:14;;;;;;;4.60;0.88;;;20.70;92.10;;;;;;6151984;23;45458;-73
2022/11/02 10:54:40;;;;;;;4.57;1.00;;;20.70;92.10;;;;;;6152829;23;46229;-73
2022/11/02 10:57:12;;;;;;;5.00;0.75;;;20.70;92.10;;;;;;6152251;23;45270;-73
2022/11/02 10:59:39;;;;;;;3.63;0.80;;;20.70;91.60;;;;;;6151659;23;45259;-71
2022/11/02 11:02:12;;;;;;;2.75;0.82;;;20.70;91.80;;;;;;6151364;23;45516;-70
2022/11/02 11:04:39;;;;;;;2.85;0.93;;;20.70;91.50;;;;;;6149234;23;45524;-70
2022/11/02 11:07:13;;;;;;;6.97;0.80;;;20.70;91.40;;;;;;6150427;23;45269;-71
2022/11/02 11:09:48;;;;;;;1.77;0.80;;;20.70;91.30;;;;;;6153950;23;45473;-71
2022/11/02 11:12:21;;;;;;;2.20;0.47;;;20.70;91.20;;;;;;6151145;23;45368;-71
2022/11/02 11:14:51;;;;;;;3.13;0.98;;;20.70;91.10;;;;;;6151596;23;47192;-70
2022/11/02 11:17:20;;;;;;;3.38;0.70;;;20.70;91.10;;;;;;6151495;23;45224;-71
2022/11/02 11:19:51;;;;;;;3.97;0.88;;;20.70;91.10;;;;;;6149491;23;45244;-72
2022/11/02 11:22:28;;;;;;;1.77;0.80;;;20.70;90.90;;;;;;6151814;23;45202;-71
2022/11/02 11:25:21;;;;;;;5.47;0.77;;;20.70;90.70;;;;;;6151823;23;47999;-71
2022/11/02 11:27:50;;;;;;;3.00;0.70;;;20.70;90.70;;;;;;6153095;23;45284;-71
2022/11/02 11:30:25;;;;;;;2.70;0.80;;;20.70;91.00;;;;;;6150849;23;45312;-71
2022/11/02 11:32:52;;;;;;;2.60;0.73;;;20.70;91.00;;;;;;6152768;23;45173;-71
2022/11/02 11:35:20;;;;;;;2.35;0.70;;;20.70;90.90;;;;;;6150758;23;47480;-71
2022/11/02 11:37:49;;;;;;;4.57;0.85;;;20.70;91.10;;;;;;6154796;23;46118;-71
2022/11/02 11:40:19;;;;;;;3.05;0.82;;;20.70;91.00;;;;;;6153147;23;45432;-71
2022/11/02 11:42:48;;;;;;;1.25;0.60;;;20.70;90.80;;;;;;6151966;23;45535;-72
2022/11/02 11:45:23;;;;;;;2.97;0.73;;;20.70;90.90;;;;;;6151318;23;49031;-71
2022/11/02 11:47:53;;;;;;;2.90;0.80;;;20.70;90.40;;;;;;6148284;23;45396;-70
2022/11/02 11:50:20;;;;;;;2.40;0.70;;;20.70;90.30;;;;;;6151039;23;45455;-71
2022/11/02 11:52:47;;;;;;;4.07;1.08;;;20.70;90.40;;;;;;6151622;23;45254;-70
2022/11/02 11:55:22;;;;;;;1.98;0.52;;;20.70;90.20;;;;;;6151398;23;46165;-71
2022/11/02 11:58:04;;;;;;;2.85;0.70;;;20.70;88.70;;;;;;6149183;23;45235;-71
2022/11/02 12:00:33;;;;;;;2.05;0.68;;;20.70;89.00;;;;;;6150927;23;45206;-70
2022/11/02 12:03:05;;;;;;;1.70;0.47;;;20.70;88.40;;;;;;6154372;23;45211;-71
2022/11/02 12:05:42;;;;;;;2.45;0.50;;;20.70;88.20;;;;;;6151632;23;48401;-71
2022/11/02 12:08:23;;;;;;;1.80;0.60;;;20.70;88.20;;;;;;6151814;23;45396;-70
2022/11/02 12:11:01;;;;;;;2.63;0.60;;;20.70;88.00;;;;;;6151847;23;45348;-71
2022/11/02 12:13:46;;;;;;;6.70;0.70;;;20.70;87.70;;;;;;6151877;23;45454;-70
2022/11/02 12:16:21;;;;;;;2.50;0.70;;;20.70;87.70;;;;;;6151251;23;48446;-71
2022/11/02 12:19:00;;;;;;;1.30;0.70;;;20.80;87.30;;;;;;6151002;23;45973;-71
2022/11/02 12:21:47;;;;;;;2.97;0.90;;;20.70;87.30;;;;;;6151823;23;45359;-71
2022/11/02 12:24:40;;;;;;;1.88;0.55;;;20.70;87.70;;;;;;6152115;23;45329;-71
2022/11/02 12:27:22;;;;;;;1.85;0.60;;;20.70;87.40;;;;;;6147000;23;46629;-71
2022/11/02 12:30:13;;;;;;;3.63;0.70;;;20.70;88.00;;;;;;6153376;23;45592;-71
2022/11/02 12:33:12;;;;;;;2.30;0.60;;;20.80;88.70;;;;;;6145788;23;45521;-71
2022/11/02 12:35:56;;;;;;;2.72;0.70;;;20.80;88.20;;;;;;6105559;23;45299;-71
2022/11/02 12:38:57;;;;;;;1.13;0.40;;;20.80;87.90;;;;;;6152461;23;46365;-71
2022/11/02 12:41:48;;;;;;;1.60;0.50;;;20.70;88.20;;;;;;6151959;23;45280;-72
2022/11/02 12:44:28;;;;;;;1.55;0.65;;;20.70;87.90;;;;;;6148451;23;45262;-70
2022/11/02 12:47:00;;;;;;;2.00;0.65;;;20.70;89.20;;;;;;6152370;23;45479;-71
2022/11/02 12:49:40;;;;;;;1.23;0.40;;;20.70;87.50;;;;;;6151472;23;48291;-70
2022/11/02 12:52:16;;;;;;;1.40;0.60;;;20.70;86.80;;;;;;6152986;23;45258;-69
2022/11/02 12:54:47;;;;;;;1.50;0.55;;;20.80;86.40;;;;;;6150467;23;45242;-71
2022/11/02 12:57:17;;;;;;;3.15;0.93;;;20.80;86.10;;;;;;6153015;23;45348;-71
2022/11/02 12:59:45;;;;;;;2.30;0.45;;;20.80;86.10;;;;;;6150814;23;45338;-71
2022/11/02 13:02:16;;;;;;;2.75;0.77;;;20.80;85.90;;;;;;6151764;23;45297;-71
2022/11/02 13:04:49;;;;;;;1.73;0.60;;;20.80;85.50;;;;;;6150690;23;45277;-71
2022/11/02 13:07:20;;;;;;;3.55;0.73;;;20.80;84.90;;;;;;6151276;23;45253;-71
2022/11/02 13:09:54;;;;;;;2.80;0.80;;;20.80;84.70;;;;;;6152017;23;45370;-71
2022/11/02 13:12:23;;;;;;;2.63;0.75;;;20.80;84.10;;;;;;6151348;23;45292;-71
2022/11/02 13:14:52;;;;;;;2.10;0.65;;;20.90;84.90;;;;;;6152222;23;45523;-71
2022/11/02 13:17:24;;;;;;;1.70;0.40;;;20.80;85.00;;;;;;6152965;23;45457;-71
2022/11/02 13:19:55;;;;;;;2.25;0.50;;;20.80;85.30;;;;;;6152693;23;46249;-71